createdAt,value
2023-03-30T00:00:18.861Z,97609.41
2023-03-30T00:02:51.306Z,97609.63
2023-03-30T00:05:24.521Z,97607.38
2023-03-30T00:07:53.398Z,97617.63
2023-03-30T00:10:24.184Z,97613.41
2023-03-30T00:12:54.263Z,97617.03
2023-03-30T00:15:26.128Z,97611.38
2023-03-30T00:17:56.718Z,97598.50
2023-03-30T00:20:26.370Z,97603.56
2023-03-30T00:22:55.349Z,97600.88
2023-03-30T00:25:25.414Z,97600.88
2023-03-30T00:27:56.593Z,97612.50
2023-03-30T00:30:27.673Z,97608.28
2023-03-30T00:32:58.294Z,97608.28
2023-03-30T00:35:31.294Z,97611.53
2023-03-30T00:38:03.793Z,97614.13
2023-03-30T00:40:34.851Z,97608.91
2023-03-30T00:43:12.718Z,97612.50
2023-03-30T00:45:44.013Z,97613.31
2023-03-30T00:48:19.420Z,97624.56
2023-03-30T00:50:54.940Z,97625.38
2023-03-30T00:53:28.826Z,97620.97
2023-03-30T00:56:01.251Z,97618.38
2023-03-30T00:58:33.003Z,97621.59
2023-03-30T01:01:08.034Z,97624.19
2023-03-30T01:03:44.161Z,97633.81
2023-03-30T01:06:18.579Z,97630.81
2023-03-30T01:08:49.253Z,97623.00
2023-03-30T01:11:19.978Z,97628.22
2023-03-30T01:13:56.226Z,97625.22
2023-03-30T01:16:38.450Z,97632.88
2023-03-30T01:19:43.836Z,97629.44
2023-03-30T01:23:16.430Z,97596.56
2023-03-30T01:26:28.527Z,97596.56
2023-03-30T01:29:09.112Z,97618.22
2023-03-30T01:32:37.176Z,97634.31
2023-03-30T01:35:42.782Z,97632.34
2023-03-30T01:38:57.138Z,97613.84
2023-03-30T01:41:37.554Z,97606.66
2023-03-30T01:44:17.528Z,97611.47
2023-03-30T01:46:53.650Z,97600.63
2023-03-30T01:49:31.996Z,97590.19
2023-03-30T01:52:13.918Z,97577.72
2023-03-30T01:54:52.345Z,97579.53
2023-03-30T01:57:28.724Z,97580.34
2023-03-30T02:00:07.506Z,97596.63
2023-03-30T02:02:38.528Z,97613.72
2023-03-30T02:05:10.431Z,97605.69
2023-03-30T02:07:42.478Z,97612.50
2023-03-30T02:10:16.172Z,97623.97
2023-03-30T02:12:48.792Z,97641.25
2023-03-30T02:15:20.119Z,97649.72
2023-03-30T02:17:50.336Z,97653.91
2023-03-30T02:20:20.752Z,97664.19
2023-03-30T02:22:51.026Z,97663.38
2023-03-30T02:25:21.477Z,97666.63
2023-03-30T02:27:52.407Z,97654.16
2023-03-30T02:30:21.847Z,97658.38
2023-03-30T02:32:55.609Z,97661.81
2023-03-30T02:35:51.383Z,97643.94
2023-03-30T02:38:53.304Z,97613.19
2023-03-30T02:41:55.173Z,97612.22
2023-03-30T02:44:42.482Z,97605.38
2023-03-30T02:47:23.682Z,97602.16
2023-03-30T02:50:02.864Z,97607.97
2023-03-30T02:52:50.964Z,97590.28
2023-03-30T02:55:27.056Z,97556.97
2023-03-30T02:58:07.486Z,97546.50
2023-03-30T03:00:47.017Z,97530.84
2023-03-30T03:03:25.744Z,97530.84
2023-03-30T03:05:56.331Z,97521.19
2023-03-30T03:08:28.719Z,97518.38
2023-03-30T03:10:59.161Z,97525.41
2023-03-30T03:13:29.432Z,97517.56
2023-03-30T03:16:04.074Z,97515.97
2023-03-30T03:18:37.638Z,97515.16
2023-03-30T03:21:07.545Z,97502.09
2023-03-30T03:23:38.476Z,97503.09
2023-03-30T03:26:07.817Z,97497.06
2023-03-30T03:28:38.901Z,97490.84
2023-03-30T03:31:10.412Z,97483.00
2023-03-30T03:33:39.867Z,97489.22
2023-03-30T03:36:12.725Z,97487.41
2023-03-30T03:38:43.260Z,97490.44
2023-03-30T03:41:13.885Z,97505.09
2023-03-30T03:43:43.178Z,97510.13
2023-03-30T03:46:14.596Z,97499.50
2023-03-30T03:48:45.083Z,97497.88
2023-03-30T03:51:14.965Z,97479.78
2023-03-30T03:53:45.144Z,97491.03
2023-03-30T03:56:15.595Z,97497.06
2023-03-30T03:58:44.598Z,97490.84
2023-03-30T04:01:15.829Z,97520.38
2023-03-30T04:03:45.084Z,97522.78
2023-03-30T04:06:14.969Z,97532.84
2023-03-30T04:08:46.189Z,97507.16
2023-03-30T04:11:16.056Z,97490.69
2023-03-30T04:13:45.657Z,97489.50
2023-03-30T04:16:16.923Z,97475.81
2023-03-30T04:18:46.356Z,97471.19
2023-03-30T04:21:18.273Z,97456.75
2023-03-30T04:23:49.819Z,97453.31
2023-03-30T04:26:19.840Z,97469.00
2023-03-30T04:28:48.922Z,97478.63
2023-03-30T04:31:23.220Z,97481.03
2023-03-30T04:33:54.727Z,97495.53
2023-03-30T04:36:24.693Z,97500.53
2023-03-30T04:39:00.235Z,97501.75
2023-03-30T04:41:33.961Z,97515.63
2023-03-30T04:44:07.185Z,97524.06
2023-03-30T04:46:38.766Z,97513.63
2023-03-30T04:49:08.521Z,97514.25
2023-03-30T04:51:38.108Z,97518.06
2023-03-30T04:54:07.717Z,97522.09
2023-03-30T04:56:38.582Z,97530.34
2023-03-30T04:59:07.741Z,97538.59
2023-03-30T05:01:39.104Z,97543.81
2023-03-30T05:04:09.361Z,97526.50
2023-03-30T05:06:39.941Z,97517.69
2023-03-30T05:09:10.331Z,97515.88
2023-03-30T05:11:40.047Z,97517.28
2023-03-30T05:14:10.379Z,97519.31
2023-03-30T05:16:41.472Z,97530.97
2023-03-30T05:19:11.283Z,97529.75
2023-03-30T05:21:41.466Z,97535.81
2023-03-30T05:24:15.056Z,97539.81
2023-03-30T05:26:46.289Z,97545.47
2023-03-30T05:29:17.903Z,97533.41
2023-03-30T05:31:48.741Z,97525.34
2023-03-30T05:34:18.583Z,97533.19
2023-03-30T05:36:48.611Z,97528.34
2023-03-30T05:39:18.803Z,97517.69
2023-03-30T05:41:48.777Z,97504.41
2023-03-30T05:44:21.198Z,97516.88
2023-03-30T05:46:53.225Z,97532.56
2023-03-30T05:49:22.793Z,97532.38
2023-03-30T05:51:52.650Z,97545.25
2023-03-30T05:54:22.766Z,97552.69
2023-03-30T05:56:52.546Z,97545.66
2023-03-30T05:59:22.444Z,97547.44
2023-03-30T06:01:54.797Z,97541.22
2023-03-30T06:04:25.079Z,97540.81
2023-03-30T06:06:55.580Z,97533.75
2023-03-30T06:09:27.012Z,97532.97
2023-03-30T06:11:57.334Z,97537.00
2023-03-30T06:14:27.192Z,97540.41
2023-03-30T06:16:58.973Z,97538.97
2023-03-30T06:19:29.385Z,97537.19
2023-03-30T06:21:59.804Z,97514.25
2023-03-30T06:24:29.325Z,97521.88
2023-03-30T06:27:01.668Z,97525.09
2023-03-30T06:29:32.143Z,97518.84
2023-03-30T06:32:04.959Z,97514.41
2023-03-30T06:34:35.579Z,97537.78
2023-03-30T06:37:05.801Z,97526.28
2023-03-30T06:39:37.996Z,97517.22
2023-03-30T06:42:08.533Z,97506.34
2023-03-30T06:44:38.618Z,97499.06
2023-03-30T06:47:10.240Z,97488.19
2023-03-30T06:49:39.112Z,97496.84
2023-03-30T06:52:08.890Z,97520.22
2023-03-30T06:54:39.375Z,97532.91
2023-03-30T06:57:09.209Z,97545.78
2023-03-30T06:59:38.636Z,97537.72
2023-03-30T07:02:16.077Z,97546.16
2023-03-30T07:04:46.940Z,97536.50
2023-03-30T07:07:16.461Z,97526.63
2023-03-30T07:09:46.461Z,97525.81
2023-03-30T07:12:16.058Z,97514.13
2023-03-30T07:14:46.004Z,97515.53
2023-03-30T07:17:16.051Z,97503.06
2023-03-30T07:19:45.578Z,97486.13
2023-03-30T07:22:16.075Z,97458.69
2023-03-30T07:24:46.382Z,97501.81
2023-03-30T07:27:16.965Z,97514.72
2023-03-30T07:29:46.575Z,97522.53
2023-03-30T07:32:18.330Z,97529.19
2023-03-30T07:34:49.062Z,97517.47
2023-03-30T07:37:20.606Z,97513.03
2023-03-30T07:39:50.938Z,97509.56
2023-03-30T07:42:21.668Z,97524.47
2023-03-30T07:44:51.517Z,97533.75
2023-03-30T07:47:22.985Z,97536.31
2023-03-30T07:49:53.445Z,97527.41
2023-03-30T07:52:24.073Z,97538.28
2023-03-30T07:54:54.726Z,97530.75
2023-03-30T07:57:24.146Z,97526.09
2023-03-30T07:59:55.363Z,97524.00
2023-03-30T08:02:27.229Z,97526.38
2023-03-30T08:04:57.562Z,97529.16
2023-03-30T08:07:28.873Z,97525.50
2023-03-30T08:09:59.323Z,97546.31
2023-03-30T08:12:28.381Z,97536.78
2023-03-30T08:14:57.885Z,97564.00
2023-03-30T08:17:28.898Z,97566.22
2023-03-30T08:19:59.315Z,97567.00
2023-03-30T08:22:30.262Z,97563.81
2023-03-30T08:25:01.222Z,97577.13
2023-03-30T08:27:31.009Z,97560.56
2023-03-30T08:30:01.588Z,97556.75
2023-03-30T08:32:32.861Z,97544.63
2023-03-30T08:35:03.239Z,97544.63
2023-03-30T08:37:33.820Z,97533.72
2023-03-30T08:40:04.137Z,97545.22
2023-03-30T08:43:37.153Z,97529.03
2023-03-30T08:46:12.678Z,97551.22
2023-03-30T08:48:45.143Z,97543.19
2023-03-30T08:51:26.149Z,97542.41
2023-03-30T08:54:02.148Z,97545.66
2023-03-30T08:56:36.042Z,97543.25
2023-03-30T08:59:19.228Z,97545.03
2023-03-30T09:01:57.928Z,97556.31
2023-03-30T09:04:42.951Z,97556.91
2023-03-30T09:07:20.672Z,97554.72
2023-03-30T09:09:52.538Z,97550.00
2023-03-30T09:12:34.965Z,97558.03
2023-03-30T09:15:10.593Z,97544.28
2023-03-30T09:17:46.723Z,97553.34
2023-03-30T09:20:24.016Z,97555.97
2023-03-30T09:22:55.589Z,97555.28
2023-03-30T09:25:34.953Z,97549.03
2023-03-30T09:28:18.332Z,97556.72
2023-03-30T09:30:53.366Z,97558.69
2023-03-30T09:33:36.180Z,97559.31
2023-03-30T09:36:17.293Z,97551.06
2023-03-30T09:38:47.402Z,97550.19
2023-03-30T09:41:49.719Z,97538.44
2023-03-30T09:44:31.668Z,97532.75
2023-03-30T09:47:03.892Z,97524.41
2023-03-30T09:49:41.222Z,97528.78
2023-03-30T09:52:25.522Z,97546.28
2023-03-30T09:54:54.838Z,97557.59
2023-03-30T09:57:31.862Z,97548.78
2023-03-30T10:00:05.576Z,97545.13
2023-03-30T10:02:35.651Z,97550.81
2023-03-30T10:05:08.175Z,97548.41
2023-03-30T10:07:43.300Z,97547.16
2023-03-30T10:10:28.851Z,97559.88
2023-03-30T10:13:05.536Z,97556.22
2023-03-30T10:15:38.235Z,97548.72
2023-03-30T10:18:26.693Z,97542.66
2023-03-30T10:21:04.214Z,97552.72
2023-03-30T10:23:40.144Z,97555.94
2023-03-30T10:26:19.188Z,97555.72
2023-03-30T10:28:57.907Z,97562.59
2023-03-30T10:31:29.231Z,97555.72
2023-03-30T10:34:03.070Z,97555.34
2023-03-30T10:36:41.201Z,97560.78
2023-03-30T10:39:19.902Z,97554.63
2023-03-30T10:41:51.899Z,97545.88
2023-03-30T10:44:27.194Z,97547.19
2023-03-30T10:47:14.838Z,97552.38
2023-03-30T10:49:58.222Z,97541.66
2023-03-30T10:52:48.792Z,97546.47
2023-03-30T10:55:40.224Z,97539.00
2023-03-30T10:58:28.858Z,97522.88
2023-03-30T11:01:14.097Z,97530.56
2023-03-30T11:03:50.136Z,97522.00
2023-03-30T11:06:28.791Z,97528.22
2023-03-30T11:09:02.660Z,97519.44
2023-03-30T11:11:41.285Z,97533.50
2023-03-30T11:14:18.531Z,97519.25
2023-03-30T11:16:57.963Z,97531.75
2023-03-30T11:19:33.751Z,97542.63
2023-03-30T11:22:11.709Z,97528.00
2023-03-30T11:24:45.119Z,97538.91
2023-03-30T11:27:24.250Z,97540.06
2023-03-30T11:30:04.826Z,97524.03
2023-03-30T11:32:44.737Z,97525.38
2023-03-30T11:35:23.442Z,97509.59
2023-03-30T11:38:02.013Z,97510.97
2023-03-30T11:40:43.684Z,97504.94
2023-03-30T11:43:17.649Z,97512.97
2023-03-30T11:46:03.532Z,97509.44
2023-03-30T11:49:25.864Z,97509.31
2023-03-30T11:52:32.988Z,97532.34
2023-03-30T11:55:25.138Z,97515.63
2023-03-30T11:58:08.336Z,97517.81
2023-03-30T12:00:57.233Z,97510.16
2023-03-30T12:03:43.197Z,97530.28
2023-03-30T12:06:32.894Z,97526.63
2023-03-30T12:09:26.494Z,97529.13
2023-03-30T12:12:12.304Z,97526.34
2023-03-30T12:14:54.516Z,97523.63
2023-03-30T12:17:40.401Z,97513.56
2023-03-30T12:20:27.398Z,97514.84
2023-03-30T12:23:04.116Z,97511.28
2023-03-30T12:25:50.796Z,97513.38
2023-03-30T12:28:32.356Z,97514.28
2023-03-30T12:31:15.052Z,97519.88
2023-03-30T12:33:50.560Z,97529.06
2023-03-30T12:36:38.389Z,97527.69
2023-03-30T12:39:17.928Z,97544.41
2023-03-30T12:41:53.176Z,97540.03
2023-03-30T12:44:44.052Z,97524.66
2023-03-30T12:47:37.880Z,97528.09
2023-03-30T12:50:30.906Z,97544.25
2023-03-30T12:53:26.930Z,97538.78
2023-03-30T12:56:08.837Z,97538.41
2023-03-30T12:59:07.343Z,97554.13
2023-03-30T13:02:00.705Z,97540.00
2023-03-30T13:04:38.368Z,97528.94
2023-03-30T13:07:18.660Z,97558.34
2023-03-30T13:09:57.916Z,97550.31
2023-03-30T13:12:41.558Z,97570.81
2023-03-30T13:15:47.931Z,97596.44
2023-03-30T13:18:35.314Z,97596.94
2023-03-30T13:21:22.330Z,97590.28
2023-03-30T13:24:37.452Z,97585.81
2023-03-30T13:27:25.960Z,97581.50
2023-03-30T13:29:59.956Z,97578.19
2023-03-30T13:33:00.477Z,97575.44
2023-03-30T13:36:01.194Z,97569.66
2023-03-30T13:39:18.789Z,97563.69
2023-03-30T13:42:08.814Z,97539.00
2023-03-30T13:44:57.139Z,97543.91
2023-03-30T13:47:57.496Z,97541.97
2023-03-30T13:50:31.828Z,97534.66
2023-03-30T13:53:09.257Z,97534.31
2023-03-30T13:55:44.355Z,97536.53
2023-03-30T13:58:20.666Z,97534.44
2023-03-30T14:00:53.476Z,97536.81
2023-03-30T14:03:36.706Z,97540.56
2023-03-30T14:06:09.475Z,97535.63
2023-03-30T14:08:41.813Z,97510.25
2023-03-30T14:11:18.596Z,97530.28
2023-03-30T14:13:53.887Z,97536.38
2023-03-30T14:16:26.342Z,97539.00
2023-03-30T14:19:12.502Z,97526.28
2023-03-30T14:21:46.313Z,97533.63
2023-03-30T14:24:19.448Z,97531.69
2023-03-30T14:26:51.728Z,97535.03
2023-03-30T14:29:31.447Z,97530.91
2023-03-30T14:32:09.225Z,97525.16
2023-03-30T14:34:40.587Z,97519.19
2023-03-30T14:37:14.029Z,97535.06
2023-03-30T14:39:46.830Z,97550.69
2023-03-30T14:42:21.464Z,97550.47
2023-03-30T14:44:55.007Z,97573.97
2023-03-30T14:47:27.321Z,97573.97
2023-03-30T14:50:01.253Z,97573.84
2023-03-30T14:52:34.892Z,97563.75
2023-03-30T14:55:08.052Z,97576.34
2023-03-30T14:57:42.680Z,97585.75
2023-03-30T15:00:21.062Z,97606.25
2023-03-30T15:02:55.214Z,97603.13
2023-03-30T15:05:30.141Z,97610.31
2023-03-30T15:07:59.945Z,97623.72
2023-03-30T15:10:36.726Z,97608.09
2023-03-30T15:13:09.266Z,97613.72
2023-03-30T15:15:39.956Z,97603.84
2023-03-30T15:18:11.833Z,97599.38
2023-03-30T15:20:41.325Z,97595.84
2023-03-30T15:23:15.716Z,97598.47
2023-03-30T15:25:46.674Z,97590.47
2023-03-30T15:28:20.280Z,97577.78
2023-03-30T15:30:54.654Z,97568.75
2023-03-30T15:33:30.768Z,97576.78
2023-03-30T15:36:08.433Z,97575.88
2023-03-30T15:38:48.332Z,97565.13
2023-03-30T15:41:18.209Z,97565.50
2023-03-30T15:44:00.049Z,97566.75
2023-03-30T15:46:35.158Z,97557.03
2023-03-30T15:49:05.499Z,97577.22
2023-03-30T15:51:41.193Z,97575.25
2023-03-30T15:54:16.137Z,97565.94
2023-03-30T15:56:56.474Z,97543.91
2023-03-30T15:59:32.479Z,97551.63
2023-03-30T16:02:16.194Z,97550.69
2023-03-30T16:04:46.222Z,97542.44
2023-03-30T16:07:20.459Z,97544.97
2023-03-30T16:09:50.262Z,97552.75
2023-03-30T16:12:22.730Z,97554.72
2023-03-30T16:14:53.319Z,97547.28
2023-03-30T16:17:23.950Z,97543.97
2023-03-30T16:19:54.214Z,97557.03
2023-03-30T16:22:24.306Z,97544.66
2023-03-30T16:24:53.347Z,97548.56
2023-03-30T16:27:23.419Z,97548.44
2023-03-30T16:29:52.349Z,97550.94
2023-03-30T16:32:24.193Z,97547.75
2023-03-30T16:34:55.006Z,97549.78
2023-03-30T16:37:24.459Z,97548.50
2023-03-30T16:39:55.170Z,97554.97
2023-03-30T16:42:27.545Z,97556.31
2023-03-30T16:44:58.845Z,97566.28
2023-03-30T16:47:30.647Z,97561.34
2023-03-30T16:50:01.088Z,97573.50
2023-03-30T16:52:31.158Z,97568.78
2023-03-30T16:55:00.681Z,97575.41
2023-03-30T16:57:30.040Z,97564.53
2023-03-30T16:59:58.942Z,97570.25
2023-03-30T17:02:30.546Z,97562.56
2023-03-30T17:05:00.490Z,97573.09
2023-03-30T17:07:30.451Z,97563.63
2023-03-30T17:09:59.645Z,97568.84
2023-03-30T17:12:29.582Z,97567.13
2023-03-30T17:15:00.142Z,97577.41
2023-03-30T17:17:30.553Z,97571.69
2023-03-30T17:20:13.072Z,97574.22
2023-03-30T17:22:43.193Z,97567.81
2023-03-30T17:25:13.407Z,97571.44
2023-03-30T17:27:43.454Z,97561.63
2023-03-30T17:30:21.322Z,97578.06
2023-03-30T17:32:52.580Z,97579.31
2023-03-30T17:35:23.203Z,97577.13
2023-03-30T17:37:53.050Z,97582.63
2023-03-30T17:40:26.629Z,97586.50
2023-03-30T17:42:56.387Z,97586.72
2023-03-30T17:45:29.830Z,97586.38
2023-03-30T17:48:01.378Z,97588.44
2023-03-30T17:50:33.258Z,97591.72
2023-03-30T17:53:02.965Z,97602.09
2023-03-30T17:55:35.351Z,97609.63
2023-03-30T17:58:05.447Z,97617.78
2023-03-30T18:00:36.732Z,97611.22
2023-03-30T18:03:08.120Z,97607.34
2023-03-30T18:05:37.094Z,97614.50
2023-03-30T18:08:07.062Z,97607.59
2023-03-30T18:10:41.557Z,97609.41
2023-03-30T18:13:11.626Z,97608.66
2023-03-30T18:15:41.318Z,97615.56
2023-03-30T18:18:22.392Z,97610.69
2023-03-30T18:20:53.634Z,97606.88
2023-03-30T18:23:23.985Z,97612.00
2023-03-30T18:25:53.923Z,97618.28
2023-03-30T18:28:26.367Z,97621.19
2023-03-30T18:30:58.630Z,97623.44
2023-03-30T18:33:30.818Z,97623.84
2023-03-30T18:36:05.466Z,97619.09
2023-03-30T18:38:35.725Z,97620.97
2023-03-30T18:41:04.945Z,97621.19
2023-03-30T18:43:35.726Z,97631.31
2023-03-30T18:46:04.950Z,97633.94
2023-03-30T18:48:36.030Z,97631.31
2023-03-30T18:51:05.403Z,97635.53
2023-03-30T18:53:36.740Z,97637.59
2023-03-30T18:56:07.152Z,97641.81
2023-03-30T18:58:41.764Z,97642.25
2023-03-30T19:01:13.347Z,97639.03
2023-03-30T19:03:44.811Z,97634.00
2023-03-30T19:06:22.363Z,97638.44
2023-03-30T19:08:51.374Z,97632.59
2023-03-30T19:11:25.015Z,97630.19
2023-03-30T19:13:53.974Z,97629.38
2023-03-30T19:16:23.474Z,97628.38
2023-03-30T19:18:53.832Z,97630.19
2023-03-30T19:21:23.795Z,97627.75
2023-03-30T19:23:52.203Z,97622.94
2023-03-30T19:26:23.803Z,97636.25
2023-03-30T19:28:53.298Z,97641.91
2023-03-30T19:31:23.142Z,97641.53
2023-03-30T19:33:54.135Z,97645.63
2023-03-30T19:36:25.540Z,97634.75
2023-03-30T19:38:55.199Z,97632.31
2023-03-30T19:41:26.672Z,97633.75
2023-03-30T19:43:56.174Z,97642.06
2023-03-30T19:46:26.301Z,97644.16
2023-03-30T19:48:57.448Z,97663.13
2023-03-30T19:51:26.333Z,97647.59
2023-03-30T19:53:57.646Z,97648.22
2023-03-30T19:56:27.382Z,97652.88
2023-03-30T19:58:59.390Z,97643.38
2023-03-30T20:01:29.593Z,97646.44
2023-03-30T20:04:00.858Z,97639.78
2023-03-30T20:06:29.530Z,97640.22
2023-03-30T20:09:00.159Z,97639.59
2023-03-30T20:11:30.390Z,97647.47
2023-03-30T20:14:00.969Z,97656.38
2023-03-30T20:16:35.654Z,97650.72
2023-03-30T20:19:15.794Z,97650.72
2023-03-30T20:21:49.191Z,97647.53
2023-03-30T20:24:18.291Z,97634.03
2023-03-30T20:26:47.679Z,97627.19
2023-03-30T20:29:16.638Z,97627.78
2023-03-30T20:31:46.895Z,97621.31
2023-03-30T20:34:18.640Z,97624.97
2023-03-30T20:36:50.517Z,97620.50
2023-03-30T20:39:22.786Z,97621.34
2023-03-30T20:41:54.064Z,97624.97
2023-03-30T20:44:30.480Z,97620.94
2023-03-30T20:47:02.305Z,97618.16
2023-03-30T20:49:34.123Z,97619.38
2023-03-30T20:52:04.613Z,97615.56
2023-03-30T20:54:33.996Z,97614.53
2023-03-30T20:57:03.622Z,97609.09
2023-03-30T20:59:33.636Z,97609.28
2023-03-30T21:02:04.474Z,97614.16
2023-03-30T21:04:34.905Z,97607.09
2023-03-30T21:07:05.070Z,97613.56
2023-03-30T21:09:35.722Z,97606.94
2023-03-30T21:12:05.972Z,97605.91
2023-03-30T21:14:35.461Z,97595.63
2023-03-30T21:17:05.796Z,97584.34
2023-03-30T21:19:36.749Z,97574.88
2023-03-30T21:22:06.195Z,97562.59
2023-03-30T21:24:35.159Z,97565.41
2023-03-30T21:27:04.055Z,97559.38
2023-03-30T21:29:32.534Z,97556.56
2023-03-30T21:32:01.986Z,97549.56
2023-03-30T21:34:32.556Z,97554.22
2023-03-30T21:37:02.974Z,97540.94
2023-03-30T21:39:32.454Z,97547.78
2023-03-30T21:42:03.601Z,97537.31
2023-03-30T21:44:36.047Z,97533.69
2023-03-30T21:47:06.221Z,97529.66
2023-03-30T21:49:37.302Z,97529.28
2023-03-30T21:52:08.618Z,97525.66
2023-03-30T21:54:37.045Z,97515.19
2023-03-30T21:57:05.802Z,97509.13
2023-03-30T21:59:35.682Z,97513.38
2023-03-30T22:02:04.738Z,97523.25
2023-03-30T22:04:35.194Z,97516.41
2023-03-30T22:07:05.355Z,97510.38
2023-03-30T22:09:36.064Z,97513.59
2023-03-30T22:12:06.405Z,97510.78
2023-03-30T22:14:36.134Z,97501.31
2023-03-30T22:17:05.677Z,97496.69
2023-03-30T22:19:35.031Z,97496.31
2023-03-30T22:22:06.176Z,97496.31
2023-03-30T22:24:39.024Z,97492.06
2023-03-30T22:27:08.989Z,97492.66
2023-03-30T22:29:38.391Z,97477.16
2023-03-30T22:32:10.033Z,97475.38
2023-03-30T22:34:41.157Z,97467.91
2023-03-30T22:37:11.599Z,97468.69
2023-03-30T22:39:43.025Z,97476.97
2023-03-30T22:42:12.459Z,97460.06
2023-03-30T22:44:42.307Z,97464.09
2023-03-30T22:47:11.972Z,97458.47
2023-03-30T22:49:41.941Z,97468.13
2023-03-30T22:52:11.833Z,97461.69
2023-03-30T22:54:43.624Z,97457.25
2023-03-30T22:57:13.904Z,97458.06
2023-03-30T22:59:44.409Z,97450.78
2023-03-30T23:02:14.933Z,97449.78
2023-03-30T23:04:44.129Z,97440.94
2023-03-30T23:07:14.865Z,97443.16
2023-03-30T23:09:47.502Z,97429.03
2023-03-30T23:12:17.475Z,97427.47
2023-03-30T23:14:48.784Z,97419.19
2023-03-30T23:17:19.040Z,97418.38
2023-03-30T23:19:50.534Z,97410.72
2023-03-30T23:22:19.386Z,97418.56
2023-03-30T23:24:51.933Z,97420.19
2023-03-30T23:27:23.376Z,97406.53
2023-03-30T23:29:52.798Z,97413.34
2023-03-30T23:32:21.842Z,97422.41
2023-03-30T23:34:50.763Z,97418.41
2023-03-30T23:37:22.486Z,97418.81
2023-03-30T23:39:52.278Z,97417.41
2023-03-30T23:42:22.672Z,97400.91
2023-03-30T23:44:52.984Z,97394.06
2023-03-30T23:47:23.410Z,97394.28
2023-03-30T23:49:53.843Z,97394.66
2023-03-30T23:52:22.669Z,97392.47
2023-03-30T23:54:54.746Z,97381.41
2023-03-30T23:57:25.768Z,97385.44
2023-03-30T23:59:55.888Z,97392.69
